sensor_id;sensor_type;location;lat;lon;timestamp;pressure;altitude;pressure_sealevel;temperature;humidity
31538;BME280;18147;51.952;6.146;2022-10-31T00:01:11;101973.78;;;12.25;100.00
31538;BME280;18147;51.952;6.146;2022-10-31T00:03:37;101965.75;;;12.25;100.00
31538;BME280;18147;51.952;6.146;2022-10-31T00:06:02;101963.69;;;12.30;100.00
31538;BME280;18147;51.952;6.146;2022-10-31T00:08:28;101974.97;;;12.19;100.00
31538;BME280;18147;51.952;6.146;2022-10-31T00:10:53;101969.63;;;12.02;100.00
31538;BME280;18147;51.952;6.146;2022-10-31T00:13:19;101974.66;;;11.90;100.00
31538;BME280;18147;51.952;6.146;2022-10-31T00:15:44;101979.28;;;11.87;100.00
31538;BME280;18147;51.952;6.146;2022-10-31T00:18:10;101977.47;;;11.87;100.00
31538;BME280;18147;51.952;6.146;2022-10-31T00:20:36;101978.25;;;11.89;100.00
31538;BME280;18147;51.952;6.146;2022-10-31T00:23:02;101987.75;;;11.78;100.00
31538;BME280;18147;51.952;6.146;2022-10-31T00:25:34;101986.31;;;11.71;100.00
31538;BME280;18147;51.952;6.146;2022-10-31T00:28:00;101995.19;;;11.71;100.00
31538;BME280;18147;51.952;6.146;2022-10-31T00:30:25;101982.84;;;11.68;100.00
31538;BME280;18147;51.952;6.146;2022-10-31T00:32:51;101986.16;;;11.74;100.00
31538;BME280;18147;51.952;6.146;2022-10-31T00:35:16;101988.81;;;11.74;100.00
31538;BME280;18147;51.952;6.146;2022-10-31T00:37:43;101974.69;;;11.72;100.00
31538;BME280;18147;51.952;6.146;2022-10-31T00:40:09;101979.88;;;11.75;100.00
31538;BME280;18147;51.952;6.146;2022-10-31T00:42:35;101991.81;;;11.67;100.00
31538;BME280;18147;51.952;6.146;2022-10-31T00:45:00;101996.81;;;11.56;100.00
31538;BME280;18147;51.952;6.146;2022-10-31T00:47:26;101997.53;;;11.60;100.00
31538;BME280;18147;51.952;6.146;2022-10-31T00:49:51;101989.28;;;11.64;100.00
31538;BME280;18147;51.952;6.146;2022-10-31T00:52:17;101992.47;;;11.54;100.00
31538;BME280;18147;51.952;6.146;2022-10-31T00:54:42;101983.78;;;11.50;100.00
31538;BME280;18147;51.952;6.146;2022-10-31T00:57:08;101990.94;;;11.50;100.00
31538;BME280;18147;51.952;6.146;2022-10-31T00:59:34;101987.84;;;11.40;100.00
31538;BME280;18147;51.952;6.146;2022-10-31T01:01:59;101992.03;;;11.27;100.00
31538;BME280;18147;51.952;6.146;2022-10-31T01:04:25;101981.34;;;11.27;100.00
31538;BME280;18147;51.952;6.146;2022-10-31T01:06:50;101995.19;;;11.35;100.00
31538;BME280;18147;51.952;6.146;2022-10-31T01:09:15;101988.97;;;11.34;100.00
31538;BME280;18147;51.952;6.146;2022-10-31T01:11:42;101988.69;;;11.22;100.00
31538;BME280;18147;51.952;6.146;2022-10-31T01:14:09;101987.28;;;10.96;100.00
31538;BME280;18147;51.952;6.146;2022-10-31T01:16:34;101983.75;;;10.95;100.00
31538;BME280;18147;51.952;6.146;2022-10-31T01:19:00;101987.03;;;10.81;100.00
31538;BME280;18147;51.952;6.146;2022-10-31T01:21:28;101984.16;;;11.05;100.00
31538;BME280;18147;51.952;6.146;2022-10-31T01:23:57;101987.75;;;11.04;100.00
31538;BME280;18147;51.952;6.146;2022-10-31T01:26:28;101984.16;;;11.05;100.00
31538;BME280;18147;51.952;6.146;2022-10-31T01:29:00;101987.50;;;11.10;100.00
31538;BME280;18147;51.952;6.146;2022-10-31T01:31:29;101977.78;;;10.88;100.00
31538;BME280;18147;51.952;6.146;2022-10-31T01:33:55;101977.75;;;10.51;100.00
31538;BME280;18147;51.952;6.146;2022-10-31T01:36:23;101990.06;;;10.53;100.00
31538;BME280;18147;51.952;6.146;2022-10-31T01:38:50;101995.94;;;10.61;100.00
31538;BME280;18147;51.952;6.146;2022-10-31T01:41:20;101993.94;;;10.67;100.00
31538;BME280;18147;51.952;6.146;2022-10-31T01:43:55;101990.97;;;10.73;100.00
31538;BME280;18147;51.952;6.146;2022-10-31T01:46:28;101992.34;;;10.62;100.00
31538;BME280;18147;51.952;6.146;2022-10-31T01:48:55;101992.50;;;10.59;100.00
31538;BME280;18147;51.952;6.146;2022-10-31T01:51:25;101991.06;;;10.71;100.00
31538;BME280;18147;51.952;6.146;2022-10-31T01:53:55;101983.50;;;10.81;100.00
31538;BME280;18147;51.952;6.146;2022-10-31T01:56:23;101970.09;;;10.82;100.00
31538;BME280;18147;51.952;6.146;2022-10-31T01:58:49;101962.00;;;10.84;100.00
31538;BME280;18147;51.952;6.146;2022-10-31T02:01:16;101963.44;;;10.72;100.00
31538;BME280;18147;51.952;6.146;2022-10-31T02:03:44;101964.22;;;10.55;100.00
31538;BME280;18147;51.952;6.146;2022-10-31T02:06:21;101964.06;;;10.18;100.00
31538;BME280;18147;51.952;6.146;2022-10-31T02:08:50;101976.75;;;10.33;100.00
31538;BME280;18147;51.952;6.146;2022-10-31T02:11:16;101964.25;;;10.35;100.00
31538;BME280;18147;51.952;6.146;2022-10-31T02:13:42;101985.47;;;10.57;100.00
31538;BME280;18147;51.952;6.146;2022-10-31T02:16:09;101981.22;;;10.53;100.00
31538;BME280;18147;51.952;6.146;2022-10-31T02:18:34;101980.94;;;10.59;100.00
31538;BME280;18147;51.952;6.146;2022-10-31T02:21:22;101989.25;;;10.72;100.00
31538;BME280;18147;51.952;6.146;2022-10-31T02:24:27;101987.38;;;10.74;100.00
31538;BME280;18147;51.952;6.146;2022-10-31T02:30:01;101989.63;;;10.83;100.00
31538;BME280;18147;51.952;6.146;2022-10-31T02:32:50;101986.16;;;10.81;100.00
31538;BME280;18147;51.952;6.146;2022-10-31T02:38:57;101983.00;;;10.92;100.00
31538;BME280;18147;51.952;6.146;2022-10-31T02:44:28;101981.28;;;10.91;100.00
31538;BME280;18147;51.952;6.146;2022-10-31T02:47:17;101979.09;;;10.99;100.00
31538;BME280;18147;51.952;6.146;2022-10-31T02:50:04;101972.91;;;10.98;100.00
31538;BME280;18147;51.952;6.146;2022-10-31T02:52:33;101969.25;;;11.01;100.00
31538;BME280;18147;51.952;6.146;2022-10-31T02:55:42;101962.50;;;10.92;100.00
31538;BME280;18147;51.952;6.146;2022-10-31T03:00:26;101963.59;;;10.88;100.00
31538;BME280;18147;51.952;6.146;2022-10-31T03:03:14;101972.25;;;10.93;100.00
31538;BME280;18147;51.952;6.146;2022-10-31T03:06:17;101973.56;;;10.84;100.00
31538;BME280;18147;51.952;6.146;2022-10-31T03:08:55;101966.63;;;10.80;100.00
31538;BME280;18147;51.952;6.146;2022-10-31T03:11:31;101970.44;;;10.75;100.00
31538;BME280;18147;51.952;6.146;2022-10-31T03:14:06;101976.00;;;10.70;100.00
31538;BME280;18147;51.952;6.146;2022-10-31T03:16:47;101970.63;;;10.10;100.00
31538;BME280;18147;51.952;6.146;2022-10-31T03:19:28;101969.56;;;10.15;100.00
31538;BME280;18147;51.952;6.146;2022-10-31T03:21:58;101965.69;;;10.22;100.00
31538;BME280;18147;51.952;6.146;2022-10-31T03:24:31;101967.41;;;10.23;100.00
31538;BME280;18147;51.952;6.146;2022-10-31T03:27:00;101964.94;;;10.18;100.00
31538;BME280;18147;51.952;6.146;2022-10-31T03:29:32;101973.88;;;10.17;100.00
31538;BME280;18147;51.952;6.146;2022-10-31T03:32:08;101972.94;;;10.18;100.00
31538;BME280;18147;51.952;6.146;2022-10-31T03:34:37;101977.13;;;10.03;100.00
31538;BME280;18147;51.952;6.146;2022-10-31T03:37:07;101972.59;;;9.85;100.00
31538;BME280;18147;51.952;6.146;2022-10-31T03:39:34;101973.38;;;9.87;100.00
31538;BME280;18147;51.952;6.146;2022-10-31T03:42:15;101978.72;;;9.87;100.00
31538;BME280;18147;51.952;6.146;2022-10-31T03:44:47;101987.25;;;9.75;100.00
31538;BME280;18147;51.952;6.146;2022-10-31T03:47:17;101973.53;;;9.62;100.00
31538;BME280;18147;51.952;6.146;2022-10-31T03:49:45;101981.28;;;9.68;100.00
31538;BME280;18147;51.952;6.146;2022-10-31T03:52:25;101976.03;;;9.67;100.00
31538;BME280;18147;51.952;6.146;2022-10-31T03:54:59;101979.34;;;9.72;100.00
31538;BME280;18147;51.952;6.146;2022-10-31T03:57:41;101985.25;;;9.80;100.00
31538;BME280;18147;51.952;6.146;2022-10-31T04:00:13;101978.13;;;9.80;100.00
31538;BME280;18147;51.952;6.146;2022-10-31T04:05:32;101984.31;;;9.81;100.00
31538;BME280;18147;51.952;6.146;2022-10-31T04:08:01;101981.91;;;9.75;100.00
31538;BME280;18147;51.952;6.146;2022-10-31T04:10:31;101974.22;;;9.67;100.00
31538;BME280;18147;51.952;6.146;2022-10-31T04:13:11;101975.84;;;9.49;100.00
31538;BME280;18147;51.952;6.146;2022-10-31T04:15:48;101974.22;;;9.23;100.00
31538;BME280;18147;51.952;6.146;2022-10-31T04:18:16;101974.09;;;9.04;100.00
31538;BME280;18147;51.952;6.146;2022-10-31T04:20:42;101976.78;;;9.03;100.00
31538;BME280;18147;51.952;6.146;2022-10-31T04:23:20;101981.84;;;9.11;100.00
31538;BME280;18147;51.952;6.146;2022-10-31T04:25:48;101970.94;;;9.17;100.00
31538;BME280;18147;51.952;6.146;2022-10-31T04:28:16;101964.81;;;9.15;100.00
31538;BME280;18147;51.952;6.146;2022-10-31T04:30:42;101975.13;;;9.24;100.00
31538;BME280;18147;51.952;6.146;2022-10-31T04:33:10;101973.75;;;9.36;100.00
31538;BME280;18147;51.952;6.146;2022-10-31T04:35:36;101970.06;;;9.38;100.00
31538;BME280;18147;51.952;6.146;2022-10-31T04:38:02;101974.19;;;9.47;100.00
31538;BME280;18147;51.952;6.146;2022-10-31T04:40:28;101970.56;;;9.48;100.00
31538;BME280;18147;51.952;6.146;2022-10-31T04:42:54;101969.84;;;9.44;100.00
31538;BME280;18147;51.952;6.146;2022-10-31T04:45:19;101973.31;;;9.46;100.00
31538;BME280;18147;51.952;6.146;2022-10-31T04:47:47;101973.38;;;9.45;100.00
31538;BME280;18147;51.952;6.146;2022-10-31T04:50:12;101975.28;;;9.41;100.00
31538;BME280;18147;51.952;6.146;2022-10-31T04:52:39;101971.53;;;9.25;100.00
31538;BME280;18147;51.952;6.146;2022-10-31T04:55:05;101968.94;;;9.00;100.00
31538;BME280;18147;51.952;6.146;2022-10-31T04:57:49;101966.88;;;8.85;100.00
31538;BME280;18147;51.952;6.146;2022-10-31T05:00:19;101970.88;;;8.48;100.00
31538;BME280;18147;51.952;6.146;2022-10-31T05:02:52;101973.44;;;8.51;100.00
31538;BME280;18147;51.952;6.146;2022-10-31T05:05:20;101970.72;;;8.52;100.00
31538;BME280;18147;51.952;6.146;2022-10-31T05:07:47;101968.91;;;8.54;100.00
31538;BME280;18147;51.952;6.146;2022-10-31T05:10:15;101957.81;;;8.42;100.00
31538;BME280;18147;51.952;6.146;2022-10-31T05:12:49;101956.69;;;8.49;100.00
31538;BME280;18147;51.952;6.146;2022-10-31T05:15:34;101956.94;;;8.66;100.00
31538;BME280;18147;51.952;6.146;2022-10-31T05:18:25;101953.06;;;8.75;100.00
31538;BME280;18147;51.952;6.146;2022-10-31T05:21:09;101954.69;;;8.79;100.00
31538;BME280;18147;51.952;6.146;2022-10-31T05:23:40;101949.81;;;8.67;100.00
31538;BME280;18147;51.952;6.146;2022-10-31T05:26:07;101951.16;;;8.55;100.00
31538;BME280;18147;51.952;6.146;2022-10-31T05:28:33;101949.59;;;8.49;100.00
31538;BME280;18147;51.952;6.146;2022-10-31T05:30:58;101946.59;;;8.59;100.00
31538;BME280;18147;51.952;6.146;2022-10-31T05:33:24;101951.44;;;8.71;100.00
31538;BME280;18147;51.952;6.146;2022-10-31T05:36:24;101946.00;;;8.74;100.00
31538;BME280;18147;51.952;6.146;2022-10-31T05:38:56;101950.97;;;8.83;100.00
31538;BME280;18147;51.952;6.146;2022-10-31T05:41:28;101950.06;;;8.84;100.00
31538;BME280;18147;51.952;6.146;2022-10-31T05:44:02;101957.00;;;8.65;100.00
31538;BME280;18147;51.952;6.146;2022-10-31T05:46:30;101956.41;;;8.56;100.00
31538;BME280;18147;51.952;6.146;2022-10-31T05:49:25;101958.69;;;8.42;100.00
31538;BME280;18147;51.952;6.146;2022-10-31T05:52:09;101955.47;;;8.57;100.00
31538;BME280;18147;51.952;6.146;2022-10-31T05:54:44;101957.94;;;8.64;100.00
31538;BME280;18147;51.952;6.146;2022-10-31T05:57:10;101954.56;;;8.59;100.00
31538;BME280;18147;51.952;6.146;2022-10-31T05:59:36;101952.53;;;8.65;100.00
31538;BME280;18147;51.952;6.146;2022-10-31T06:02:01;101950.84;;;8.63;100.00
31538;BME280;18147;51.952;6.146;2022-10-31T06:04:47;101950.91;;;8.61;100.00
31538;BME280;18147;51.952;6.146;2022-10-31T06:07:13;101950.69;;;8.44;100.00
31538;BME280;18147;51.952;6.146;2022-10-31T06:09:38;101957.06;;;8.38;100.00
31538;BME280;18147;51.952;6.146;2022-10-31T06:12:05;101953.63;;;8.35;100.00
31538;BME280;18147;51.952;6.146;2022-10-31T06:15:05;101952.56;;;8.40;100.00
31538;BME280;18147;51.952;6.146;2022-10-31T06:17:31;101949.00;;;8.41;100.00
31538;BME280;18147;51.952;6.146;2022-10-31T06:20:16;101954.66;;;8.30;100.00
31538;BME280;18147;51.952;6.146;2022-10-31T06:22:52;101945.34;;;8.19;100.00
31538;BME280;18147;51.952;6.146;2022-10-31T06:25:18;101947.78;;;8.00;100.00
31538;BME280;18147;51.952;6.146;2022-10-31T06:27:47;101938.88;;;8.01;100.00
31538;BME280;18147;51.952;6.146;2022-10-31T06:30:14;101948.56;;;8.03;100.00
31538;BME280;18147;51.952;6.146;2022-10-31T06:32:40;101955.19;;;7.90;100.00
31538;BME280;18147;51.952;6.146;2022-10-31T06:35:06;101946.09;;;7.97;100.00
31538;BME280;18147;51.952;6.146;2022-10-31T06:37:33;101952.97;;;8.03;100.00
31538;BME280;18147;51.952;6.146;2022-10-31T06:40:05;101953.34;;;8.17;100.00
31538;BME280;18147;51.952;6.146;2022-10-31T06:42:42;101955.97;;;8.19;100.00
31538;BME280;18147;51.952;6.146;2022-10-31T06:45:08;101956.72;;;7.97;100.00
31538;BME280;18147;51.952;6.146;2022-10-31T06:47:59;101947.84;;;7.98;100.00
31538;BME280;18147;51.952;6.146;2022-10-31T06:50:27;101963.00;;;7.95;100.00
31538;BME280;18147;51.952;6.146;2022-10-31T06:52:53;101959.75;;;8.12;100.00
31538;BME280;18147;51.952;6.146;2022-10-31T06:55:19;101961.00;;;8.26;100.00
31538;BME280;18147;51.952;6.146;2022-10-31T06:57:59;101956.72;;;8.22;100.00
31538;BME280;18147;51.952;6.146;2022-10-31T07:00:26;101956.53;;;8.28;100.00
31538;BME280;18147;51.952;6.146;2022-10-31T07:03:04;101958.72;;;8.16;100.00
31538;BME280;18147;51.952;6.146;2022-10-31T07:05:30;101949.69;;;8.21;100.00
31538;BME280;18147;51.952;6.146;2022-10-31T07:07:59;101952.09;;;8.27;100.00
31538;BME280;18147;51.952;6.146;2022-10-31T07:10:28;101946.84;;;8.26;100.00
31538;BME280;18147;51.952;6.146;2022-10-31T07:13:01;101956.03;;;8.42;100.00
31538;BME280;18147;51.952;6.146;2022-10-31T07:15:33;101962.56;;;8.57;100.00
31538;BME280;18147;51.952;6.146;2022-10-31T07:18:00;101957.78;;;8.67;100.00
31538;BME280;18147;51.952;6.146;2022-10-31T07:20:27;101961.28;;;8.69;100.00
31538;BME280;18147;51.952;6.146;2022-10-31T07:22:52;101965.16;;;8.84;100.00
31538;BME280;18147;51.952;6.146;2022-10-31T07:25:18;101967.31;;;8.96;100.00
31538;BME280;18147;51.952;6.146;2022-10-31T07:28:07;101970.31;;;9.10;100.00
31538;BME280;18147;51.952;6.146;2022-10-31T07:30:32;101970.31;;;9.10;100.00
31538;BME280;18147;51.952;6.146;2022-10-31T07:32:58;101968.03;;;9.23;100.00
31538;BME280;18147;51.952;6.146;2022-10-31T07:35:34;101959.75;;;9.30;100.00
31538;BME280;18147;51.952;6.146;2022-10-31T07:38:10;101961.38;;;9.34;100.00
31538;BME280;18147;51.952;6.146;2022-10-31T07:40:36;101962.09;;;9.38;100.00
31538;BME280;18147;51.952;6.146;2022-10-31T07:43:01;101968.06;;;9.45;100.00
31538;BME280;18147;51.952;6.146;2022-10-31T07:45:51;101963.06;;;9.79;100.00
31538;BME280;18147;51.952;6.146;2022-10-31T07:48:36;101956.63;;;9.85;100.00
31538;BME280;18147;51.952;6.146;2022-10-31T07:51:20;101965.00;;;9.96;100.00
31538;BME280;18147;51.952;6.146;2022-10-31T07:54:03;101961.56;;;10.15;100.00
31538;BME280;18147;51.952;6.146;2022-10-31T07:56:30;101959.41;;;10.24;100.00
31538;BME280;18147;51.952;6.146;2022-10-31T07:58:56;101961.59;;;10.35;100.00
31538;BME280;18147;51.952;6.146;2022-10-31T08:01:22;101963.41;;;10.53;100.00
31538;BME280;18147;51.952;6.146;2022-10-31T08:04:05;101962.56;;;10.72;100.00
31538;BME280;18147;51.952;6.146;2022-10-31T08:06:49;101966.88;;;10.74;100.00
31538;BME280;18147;51.952;6.146;2022-10-31T08:09:26;101964.91;;;10.79;100.00
31538;BME280;18147;51.952;6.146;2022-10-31T08:11:53;101973.41;;;10.87;100.00
31538;BME280;18147;51.952;6.146;2022-10-31T08:14:18;101972.59;;;11.04;100.00
31538;BME280;18147;51.952;6.146;2022-10-31T08:16:44;101973.75;;;11.18;100.00
31538;BME280;18147;51.952;6.146;2022-10-31T08:19:11;101968.75;;;11.29;100.00
31538;BME280;18147;51.952;6.146;2022-10-31T08:21:38;101973.25;;;11.28;100.00
31538;BME280;18147;51.952;6.146;2022-10-31T08:24:05;101980.25;;;11.50;100.00
31538;BME280;18147;51.952;6.146;2022-10-31T08:26:31;101975.91;;;11.47;100.00
31538;BME280;18147;51.952;6.146;2022-10-31T08:28:58;101963.06;;;11.73;100.00
31538;BME280;18147;51.952;6.146;2022-10-31T08:31:27;101964.97;;;11.88;100.00
31538;BME280;18147;51.952;6.146;2022-10-31T08:34:13;101964.38;;;12.00;100.00
31538;BME280;18147;51.952;6.146;2022-10-31T08:36:57;101960.72;;;12.36;100.00
31538;BME280;18147;51.952;6.146;2022-10-31T08:39:28;101952.06;;;12.64;100.00
31538;BME280;18147;51.952;6.146;2022-10-31T08:41:54;101959.09;;;12.82;100.00
31538;BME280;18147;51.952;6.146;2022-10-31T08:44:20;101961.69;;;12.84;100.00
31538;BME280;18147;51.952;6.146;2022-10-31T08:46:46;101956.94;;;12.89;100.00
31538;BME280;18147;51.952;6.146;2022-10-31T08:49:13;101960.06;;;12.97;100.00
31538;BME280;18147;51.952;6.146;2022-10-31T08:51:40;101951.78;;;13.02;100.00
31538;BME280;18147;51.952;6.146;2022-10-31T08:54:06;101949.56;;;13.26;100.00
31538;BME280;18147;51.952;6.146;2022-10-31T08:56:34;101947.75;;;13.42;100.00
31538;BME280;18147;51.952;6.146;2022-10-31T08:59:02;101943.53;;;13.22;100.00
31538;BME280;18147;51.952;6.146;2022-10-31T09:01:46;101945.16;;;13.25;100.00
31538;BME280;18147;51.952;6.146;2022-10-31T09:04:13;101946.09;;;13.39;100.00
31538;BME280;18147;51.952;6.146;2022-10-31T09:06:39;101944.59;;;13.50;100.00
31538;BME280;18147;51.952;6.146;2022-10-31T09:09:04;101941.09;;;13.79;100.00
31538;BME280;18147;51.952;6.146;2022-10-31T09:11:30;101935.63;;;14.11;100.00
31538;BME280;18147;51.952;6.146;2022-10-31T09:14:14;101928.72;;;14.07;100.00
31538;BME280;18147;51.952;6.146;2022-10-31T09:17:09;101931.41;;;14.35;100.00
31538;BME280;18147;51.952;6.146;2022-10-31T09:20:00;101931.34;;;14.65;100.00
31538;BME280;18147;51.952;6.146;2022-10-31T09:22:30;101933.41;;;14.62;100.00
31538;BME280;18147;51.952;6.146;2022-10-31T09:24:56;101933.19;;;14.50;100.00
31538;BME280;18147;51.952;6.146;2022-10-31T09:27:21;101928.09;;;14.60;100.00
31538;BME280;18147;51.952;6.146;2022-10-31T09:29:47;101922.16;;;14.55;100.00
31538;BME280;18147;51.952;6.146;2022-10-31T09:32:15;101919.00;;;14.77;100.00
31538;BME280;18147;51.952;6.146;2022-10-31T09:34:44;101926.94;;;14.93;100.00
31538;BME280;18147;51.952;6.146;2022-10-31T09:37:13;101934.38;;;15.16;100.00
31538;BME280;18147;51.952;6.146;2022-10-31T09:39:39;101929.59;;;15.07;100.00
31538;BME280;18147;51.952;6.146;2022-10-31T09:42:28;101930.28;;;14.96;100.00
31538;BME280;18147;51.952;6.146;2022-10-31T09:45:13;101899.53;;;15.15;100.00
31538;BME280;18147;51.952;6.146;2022-10-31T09:50:54;101863.16;;;14.96;100.00
31538;BME280;18147;51.952;6.146;2022-10-31T09:53:48;101869.81;;;15.31;100.00
31538;BME280;18147;51.952;6.146;2022-10-31T09:56:21;101871.47;;;15.46;100.00
31538;BME280;18147;51.952;6.146;2022-10-31T09:58:52;101885.13;;;15.16;100.00
31538;BME280;18147;51.952;6.146;2022-10-31T10:01:47;101872.41;;;15.32;100.00
31538;BME280;18147;51.952;6.146;2022-10-31T10:10:49;101884.50;;;15.12;100.00
31538;BME280;18147;51.952;6.146;2022-10-31T10:13:42;101876.00;;;15.18;100.00
31538;BME280;18147;51.952;6.146;2022-10-31T10:21:40;101883.22;;;15.97;100.00
31538;BME280;18147;51.952;6.146;2022-10-31T10:30:17;101866.44;;;15.54;100.00
31538;BME280;18147;51.952;6.146;2022-10-31T10:32:52;101860.47;;;15.76;100.00
31538;BME280;18147;51.952;6.146;2022-10-31T10:37:49;101862.34;;;15.48;100.00
31538;BME280;18147;51.952;6.146;2022-10-31T10:40:18;101855.69;;;15.54;100.00
31538;BME280;18147;51.952;6.146;2022-10-31T10:42:53;101855.19;;;15.62;100.00
31538;BME280;18147;51.952;6.146;2022-10-31T10:45:40;101838.78;;;15.92;100.00
31538;BME280;18147;51.952;6.146;2022-10-31T10:48:43;101837.50;;;15.97;100.00
31538;BME280;18147;51.952;6.146;2022-10-31T10:51:20;101834.78;;;15.85;100.00
31538;BME280;18147;51.952;6.146;2022-10-31T10:59:02;101832.66;;;15.77;100.00
31538;BME280;18147;51.952;6.146;2022-10-31T11:01:28;101831.63;;;15.65;100.00
31538;BME280;18147;51.952;6.146;2022-10-31T11:03:53;101815.13;;;15.97;100.00
31538;BME280;18147;51.952;6.146;2022-10-31T11:06:23;101803.06;;;16.02;100.00
31538;BME280;18147;51.952;6.146;2022-10-31T11:08:52;101807.00;;;16.22;100.00
31538;BME280;18147;51.952;6.146;2022-10-31T11:13:49;101793.50;;;16.48;100.00
31538;BME280;18147;51.952;6.146;2022-10-31T11:16:30;101784.44;;;16.86;100.00
31538;BME280;18147;51.952;6.146;2022-10-31T11:19:28;101774.75;;;16.83;100.00
31538;BME280;18147;51.952;6.146;2022-10-31T11:21:54;101764.78;;;16.72;100.00
31538;BME280;18147;51.952;6.146;2022-10-31T11:24:37;101759.94;;;16.65;100.00
31538;BME280;18147;51.952;6.146;2022-10-31T11:27:19;101744.66;;;16.89;100.00
31538;BME280;18147;51.952;6.146;2022-10-31T11:29:45;101752.19;;;16.73;100.00
31538;BME280;18147;51.952;6.146;2022-10-31T11:32:24;101740.00;;;16.30;100.00
31538;BME280;18147;51.952;6.146;2022-10-31T11:35:02;101737.22;;;16.56;100.00
31538;BME280;18147;51.952;6.146;2022-10-31T11:37:35;101740.22;;;16.64;100.00
31538;BME280;18147;51.952;6.146;2022-10-31T11:40:06;101738.78;;;16.47;100.00
31538;BME280;18147;51.952;6.146;2022-10-31T11:42:42;101733.28;;;16.49;100.00
31538;BME280;18147;51.952;6.146;2022-10-31T11:45:27;101728.72;;;16.86;100.00
31538;BME280;18147;51.952;6.146;2022-10-31T11:47:56;101728.53;;;17.00;100.00
31538;BME280;18147;51.952;6.146;2022-10-31T11:52:52;101721.31;;;17.01;100.00
31538;BME280;18147;51.952;6.146;2022-10-31T11:55:36;101707.06;;;16.88;100.00
31538;BME280;18147;51.952;6.146;2022-10-31T11:58:03;101711.78;;;16.73;100.00
31538;BME280;18147;51.952;6.146;2022-10-31T12:00:31;101713.41;;;17.22;100.00
31538;BME280;18147;51.952;6.146;2022-10-31T12:05:42;101709.34;;;17.16;100.00
31538;BME280;18147;51.952;6.146;2022-10-31T12:08:12;101709.31;;;17.05;100.00
31538;BME280;18147;51.952;6.146;2022-10-31T12:10:48;101689.75;;;17.14;100.00
31538;BME280;18147;51.952;6.146;2022-10-31T12:16:20;101677.00;;;17.16;100.00
31538;BME280;18147;51.952;6.146;2022-10-31T12:35:47;101650.38;;;17.00;100.00
31538;BME280;18147;51.952;6.146;2022-10-31T12:38:25;101642.72;;;17.18;100.00
31538;BME280;18147;51.952;6.146;2022-10-31T12:44:06;101616.88;;;17.49;100.00
31538;BME280;18147;51.952;6.146;2022-10-31T13:00:11;101579.97;;;17.39;100.00
31538;BME280;18147;51.952;6.146;2022-10-31T13:03:03;101574.31;;;17.42;100.00
31538;BME280;18147;51.952;6.146;2022-10-31T13:05:36;101563.78;;;17.16;100.00
31538;BME280;18147;51.952;6.146;2022-10-31T13:08:09;101563.94;;;17.15;100.00
31538;BME280;18147;51.952;6.146;2022-10-31T13:10:46;101537.22;;;17.23;100.00
31538;BME280;18147;51.952;6.146;2022-10-31T13:13:19;101539.81;;;17.02;100.00
31538;BME280;18147;51.952;6.146;2022-10-31T13:16:00;101537.97;;;17.02;100.00
31538;BME280;18147;51.952;6.146;2022-10-31T13:18:33;101524.47;;;17.14;100.00
31538;BME280;18147;51.952;6.146;2022-10-31T13:21:03;101526.44;;;17.23;100.00
31538;BME280;18147;51.952;6.146;2022-10-31T13:23:35;101524.72;;;17.11;100.00
31538;BME280;18147;51.952;6.146;2022-10-31T13:26:08;101514.91;;;17.21;100.00
31538;BME280;18147;51.952;6.146;2022-10-31T13:31:04;101515.28;;;17.05;100.00
31538;BME280;18147;51.952;6.146;2022-10-31T13:33:34;101505.09;;;17.31;100.00
31538;BME280;18147;51.952;6.146;2022-10-31T13:39:15;101490.31;;;17.03;100.00
31538;BME280;18147;51.952;6.146;2022-10-31T13:41:49;101486.13;;;17.10;100.00
31538;BME280;18147;51.952;6.146;2022-10-31T13:44:21;101481.38;;;17.02;100.00
31538;BME280;18147;51.952;6.146;2022-10-31T13:46:53;101482.22;;;17.03;100.00
31538;BME280;18147;51.952;6.146;2022-10-31T13:49:39;101473.50;;;17.11;100.00
31538;BME280;18147;51.952;6.146;2022-10-31T13:54:38;101460.53;;;17.04;100.00
31538;BME280;18147;51.952;6.146;2022-10-31T13:57:17;101446.66;;;17.20;100.00
31538;BME280;18147;51.952;6.146;2022-10-31T13:59:52;101451.25;;;16.97;100.00
31538;BME280;18147;51.952;6.146;2022-10-31T14:02:25;101435.34;;;16.83;100.00
31538;BME280;18147;51.952;6.146;2022-10-31T14:04:55;101444.88;;;16.87;100.00
31538;BME280;18147;51.952;6.146;2022-10-31T14:07:22;101437.78;;;16.75;100.00
31538;BME280;18147;51.952;6.146;2022-10-31T14:12:27;101425.63;;;16.69;100.00
31538;BME280;18147;51.952;6.146;2022-10-31T14:14:58;101425.25;;;16.63;100.00
31538;BME280;18147;51.952;6.146;2022-10-31T14:17:27;101425.72;;;16.56;100.00
31538;BME280;18147;51.952;6.146;2022-10-31T14:25:36;101409.69;;;16.55;100.00
31538;BME280;18147;51.952;6.146;2022-10-31T14:28:18;101396.59;;;16.62;100.00
31538;BME280;18147;51.952;6.146;2022-10-31T14:30:52;101388.91;;;16.57;100.00
31538;BME280;18147;51.952;6.146;2022-10-31T14:33:23;101383.78;;;16.43;100.00
31538;BME280;18147;51.952;6.146;2022-10-31T14:38:35;101377.63;;;16.41;100.00
31538;BME280;18147;51.952;6.146;2022-10-31T14:41:15;101367.50;;;16.33;100.00
31538;BME280;18147;51.952;6.146;2022-10-31T14:46:28;101364.53;;;16.25;100.00
31538;BME280;18147;51.952;6.146;2022-10-31T14:49:30;101369.06;;;16.24;100.00
31538;BME280;18147;51.952;6.146;2022-10-31T14:51:59;101366.38;;;16.24;100.00
31538;BME280;18147;51.952;6.146;2022-10-31T14:54:37;101354.88;;;16.22;100.00
31538;BME280;18147;51.952;6.146;2022-10-31T14:57:07;101352.56;;;16.18;100.00
31538;BME280;18147;51.952;6.146;2022-10-31T14:59:42;101347.41;;;16.26;100.00